sensor_id;sensor_type;location;lat;lon;timestamp;temperature;humidity
58849;DHT22;44619;51.022;6.818;2023-05-07T00:01:51;16.60;56.20
58849;DHT22;44619;51.022;6.818;2023-05-07T00:04:20;16.50;56.40
58849;DHT22;44619;51.022;6.818;2023-05-07T00:06:46;16.60;56.30
58849;DHT22;44619;51.022;6.818;2023-05-07T00:09:14;16.60;56.00
58849;DHT22;44619;51.022;6.818;2023-05-07T00:11:43;16.70;55.90
58849;DHT22;44619;51.022;6.818;2023-05-07T00:14:11;16.60;56.00
58849;DHT22;44619;51.022;6.818;2023-05-07T00:16:36;16.60;56.00
58849;DHT22;44619;51.022;6.818;2023-05-07T00:19:02;16.50;56.30
58849;DHT22;44619;51.022;6.818;2023-05-07T00:21:27;16.40;56.30
58849;DHT22;44619;51.022;6.818;2023-05-07T00:23:53;16.40;56.20
58849;DHT22;44619;51.022;6.818;2023-05-07T00:26:19;16.50;56.20
58849;DHT22;44619;51.022;6.818;2023-05-07T00:28:48;16.50;56.20
58849;DHT22;44619;51.022;6.818;2023-05-07T00:31:14;16.40;56.10
58849;DHT22;44619;51.022;6.818;2023-05-07T00:33:40;16.40;56.10
58849;DHT22;44619;51.022;6.818;2023-05-07T00:36:05;16.40;56.10
58849;DHT22;44619;51.022;6.818;2023-05-07T00:38:31;16.40;56.00
58849;DHT22;44619;51.022;6.818;2023-05-07T00:40:57;16.40;56.00
58849;DHT22;44619;51.022;6.818;2023-05-07T00:43:23;16.30;56.40
58849;DHT22;44619;51.022;6.818;2023-05-07T00:45:48;16.30;56.30
58849;DHT22;44619;51.022;6.818;2023-05-07T00:48:14;16.10;56.60
58849;DHT22;44619;51.022;6.818;2023-05-07T00:50:39;16.10;56.80
58849;DHT22;44619;51.022;6.818;2023-05-07T00:53:05;16.10;56.70
58849;DHT22;44619;51.022;6.818;2023-05-07T00:55:31;16.10;56.40
58849;DHT22;44619;51.022;6.818;2023-05-07T00:57:56;16.00;56.80
58849;DHT22;44619;51.022;6.818;2023-05-07T01:00:22;15.90;56.90
58849;DHT22;44619;51.022;6.818;2023-05-07T01:02:47;16.00;56.70
58849;DHT22;44619;51.022;6.818;2023-05-07T01:05:17;16.00;56.70
58849;DHT22;44619;51.022;6.818;2023-05-07T01:07:44;16.00;56.60
58849;DHT22;44619;51.022;6.818;2023-05-07T01:10:10;16.00;56.70
58849;DHT22;44619;51.022;6.818;2023-05-07T01:12:39;15.90;57.00
58849;DHT22;44619;51.022;6.818;2023-05-07T01:15:05;15.90;56.70
58849;DHT22;44619;51.022;6.818;2023-05-07T01:17:35;16.00;56.70
58849;DHT22;44619;51.022;6.818;2023-05-07T01:20:01;15.90;56.60
58849;DHT22;44619;51.022;6.818;2023-05-07T01:22:33;16.00;56.40
58849;DHT22;44619;51.022;6.818;2023-05-07T01:24:59;16.00;56.40
58849;DHT22;44619;51.022;6.818;2023-05-07T01:27:27;16.00;56.40
58849;DHT22;44619;51.022;6.818;2023-05-07T01:29:52;15.90;56.50
58849;DHT22;44619;51.022;6.818;2023-05-07T01:33:01;15.90;56.60
58849;DHT22;44619;51.022;6.818;2023-05-07T01:35:07;15.90;56.60
58849;DHT22;44619;51.022;6.818;2023-05-07T01:37:38;15.90;56.40
58849;DHT22;44619;51.022;6.818;2023-05-07T01:40:05;15.90;56.40
58849;DHT22;44619;51.022;6.818;2023-05-07T01:42:33;15.90;56.50
58849;DHT22;44619;51.022;6.818;2023-05-07T01:44:59;15.80;56.50
58849;DHT22;44619;51.022;6.818;2023-05-07T01:47:25;15.90;56.50
58849;DHT22;44619;51.022;6.818;2023-05-07T01:49:51;15.90;56.30
58849;DHT22;44619;51.022;6.818;2023-05-07T01:52:16;15.90;56.30
58849;DHT22;44619;51.022;6.818;2023-05-07T01:54:42;15.90;56.50
58849;DHT22;44619;51.022;6.818;2023-05-07T01:57:07;15.90;56.40
58849;DHT22;44619;51.022;6.818;2023-05-07T01:59:33;15.90;56.30
58849;DHT22;44619;51.022;6.818;2023-05-07T02:01:59;15.80;56.40
58849;DHT22;44619;51.022;6.818;2023-05-07T02:04:24;15.80;56.50
58849;DHT22;44619;51.022;6.818;2023-05-07T02:06:50;15.80;56.50
58849;DHT22;44619;51.022;6.818;2023-05-07T02:09:15;15.70;56.80
58849;DHT22;44619;51.022;6.818;2023-05-07T02:11:41;15.70;56.60
58849;DHT22;44619;51.022;6.818;2023-05-07T02:14:06;15.70;56.60
58849;DHT22;44619;51.022;6.818;2023-05-07T02:16:32;15.60;56.90
58849;DHT22;44619;51.022;6.818;2023-05-07T02:18:57;15.50;57.00
58849;DHT22;44619;51.022;6.818;2023-05-07T02:21:24;15.40;57.20
58849;DHT22;44619;51.022;6.818;2023-05-07T02:23:50;15.40;57.10
58849;DHT22;44619;51.022;6.818;2023-05-07T02:26:16;15.40;57.10
58849;DHT22;44619;51.022;6.818;2023-05-07T02:28:41;15.50;56.80
58849;DHT22;44619;51.022;6.818;2023-05-07T02:31:07;15.40;57.70
58849;DHT22;44619;51.022;6.818;2023-05-07T02:33:32;15.30;57.40
58849;DHT22;44619;51.022;6.818;2023-05-07T02:36:06;15.20;57.40
58849;DHT22;44619;51.022;6.818;2023-05-07T02:38:32;15.30;57.50
58849;DHT22;44619;51.022;6.818;2023-05-07T02:41:01;15.20;57.40
58849;DHT22;44619;51.022;6.818;2023-05-07T02:43:26;15.20;57.40
58849;DHT22;44619;51.022;6.818;2023-05-07T02:46:04;15.10;57.80
58849;DHT22;44619;51.022;6.818;2023-05-07T02:48:30;15.20;57.60
58849;DHT22;44619;51.022;6.818;2023-05-07T02:50:56;15.10;57.60
58849;DHT22;44619;51.022;6.818;2023-05-07T02:53:21;15.00;57.50
58849;DHT22;44619;51.022;6.818;2023-05-07T02:55:47;15.10;57.60
58849;DHT22;44619;51.022;6.818;2023-05-07T02:58:12;15.10;57.50
58849;DHT22;44619;51.022;6.818;2023-05-07T03:00:38;15.10;57.20
58849;DHT22;44619;51.022;6.818;2023-05-07T03:03:03;15.00;57.40
58849;DHT22;44619;51.022;6.818;2023-05-07T03:05:29;15.10;57.10
58849;DHT22;44619;51.022;6.818;2023-05-07T03:07:56;15.10;57.20
58849;DHT22;44619;51.022;6.818;2023-05-07T03:10:21;15.10;57.30
58849;DHT22;44619;51.022;6.818;2023-05-07T03:12:47;15.00;57.50
58849;DHT22;44619;51.022;6.818;2023-05-07T03:15:15;15.00;57.20
58849;DHT22;44619;51.022;6.818;2023-05-07T03:17:42;15.10;57.10
58849;DHT22;44619;51.022;6.818;2023-05-07T03:20:10;15.00;57.50
58849;DHT22;44619;51.022;6.818;2023-05-07T03:22:36;15.00;57.30
58849;DHT22;44619;51.022;6.818;2023-05-07T03:25:01;15.10;57.10
58849;DHT22;44619;51.022;6.818;2023-05-07T03:27:28;15.00;57.30
58849;DHT22;44619;51.022;6.818;2023-05-07T03:29:53;14.90;57.50
58849;DHT22;44619;51.022;6.818;2023-05-07T03:32:19;14.90;57.60
58849;DHT22;44619;51.022;6.818;2023-05-07T03:34:44;14.90;57.50
58849;DHT22;44619;51.022;6.818;2023-05-07T03:37:10;14.90;57.40
58849;DHT22;44619;51.022;6.818;2023-05-07T03:39:35;14.90;57.40
58849;DHT22;44619;51.022;6.818;2023-05-07T03:42:04;14.90;57.40
58849;DHT22;44619;51.022;6.818;2023-05-07T03:44:29;14.90;57.30
58849;DHT22;44619;51.022;6.818;2023-05-07T03:46:55;15.00;57.20
58849;DHT22;44619;51.022;6.818;2023-05-07T03:49:21;14.90;57.30
58849;DHT22;44619;51.022;6.818;2023-05-07T03:51:46;14.90;57.40
58849;DHT22;44619;51.022;6.818;2023-05-07T03:54:12;14.70;57.60
58849;DHT22;44619;51.022;6.818;2023-05-07T03:56:37;14.80;57.30
58849;DHT22;44619;51.022;6.818;2023-05-07T03:59:03;14.80;57.30
58849;DHT22;44619;51.022;6.818;2023-05-07T04:01:28;14.70;57.60
58849;DHT22;44619;51.022;6.818;2023-05-07T04:03:54;14.70;57.60
58849;DHT22;44619;51.022;6.818;2023-05-07T04:06:19;14.70;57.40
58849;DHT22;44619;51.022;6.818;2023-05-07T04:08:45;14.70;57.50
58849;DHT22;44619;51.022;6.818;2023-05-07T04:11:12;14.70;57.30
58849;DHT22;44619;51.022;6.818;2023-05-07T04:13:40;14.70;57.30
58849;DHT22;44619;51.022;6.818;2023-05-07T04:16:06;14.80;57.30
58849;DHT22;44619;51.022;6.818;2023-05-07T04:18:31;14.70;57.20
58849;DHT22;44619;51.022;6.818;2023-05-07T04:20:57;14.80;57.00
58849;DHT22;44619;51.022;6.818;2023-05-07T04:23:22;14.90;56.70
58849;DHT22;44619;51.022;6.818;2023-05-07T04:25:48;14.80;56.80
58849;DHT22;44619;51.022;6.818;2023-05-07T04:28:13;14.90;56.90
58849;DHT22;44619;51.022;6.818;2023-05-07T04:30:39;14.90;56.70
58849;DHT22;44619;51.022;6.818;2023-05-07T04:33:06;14.90;56.90
58849;DHT22;44619;51.022;6.818;2023-05-07T04:35:32;14.90;56.80
58849;DHT22;44619;51.022;6.818;2023-05-07T04:37:57;15.00;56.80
58849;DHT22;44619;51.022;6.818;2023-05-07T04:40:23;14.90;56.90
58849;DHT22;44619;51.022;6.818;2023-05-07T04:42:48;15.00;56.90
58849;DHT22;44619;51.022;6.818;2023-05-07T04:45:14;15.00;56.90
58849;DHT22;44619;51.022;6.818;2023-05-07T04:47:40;15.00;57.00
58849;DHT22;44619;51.022;6.818;2023-05-07T04:50:06;15.00;57.20
58849;DHT22;44619;51.022;6.818;2023-05-07T04:52:32;15.10;56.80
58849;DHT22;44619;51.022;6.818;2023-05-07T04:54:58;15.10;56.80
58849;DHT22;44619;51.022;6.818;2023-05-07T04:57:24;15.10;56.70
58849;DHT22;44619;51.022;6.818;2023-05-07T04:59:50;15.10;57.00
58849;DHT22;44619;51.022;6.818;2023-05-07T05:02:15;15.10;57.10
58849;DHT22;44619;51.022;6.818;2023-05-07T05:04:41;15.00;57.40
58849;DHT22;44619;51.022;6.818;2023-05-07T05:07:07;14.90;57.80
58849;DHT22;44619;51.022;6.818;2023-05-07T05:09:32;15.00;57.70
58849;DHT22;44619;51.022;6.818;2023-05-07T05:11:58;15.00;57.40
58849;DHT22;44619;51.022;6.818;2023-05-07T05:14:24;15.10;57.50
58849;DHT22;44619;51.022;6.818;2023-05-07T05:16:51;15.10;57.30
58849;DHT22;44619;51.022;6.818;2023-05-07T05:19:17;15.10;57.40
58849;DHT22;44619;51.022;6.818;2023-05-07T05:21:42;15.20;57.30
58849;DHT22;44619;51.022;6.818;2023-05-07T05:24:08;15.20;57.40
58849;DHT22;44619;51.022;6.818;2023-05-07T05:26:34;15.20;57.40
58849;DHT22;44619;51.022;6.818;2023-05-07T05:28:59;15.20;57.40
58849;DHT22;44619;51.022;6.818;2023-05-07T05:31:25;15.20;57.60
58849;DHT22;44619;51.022;6.818;2023-05-07T05:33:50;15.20;57.70
58849;DHT22;44619;51.022;6.818;2023-05-07T05:36:16;15.20;57.70
58849;DHT22;44619;51.022;6.818;2023-05-07T05:38:42;15.30;57.50
58849;DHT22;44619;51.022;6.818;2023-05-07T05:41:07;15.40;57.50
58849;DHT22;44619;51.022;6.818;2023-05-07T05:43:33;15.40;57.40
58849;DHT22;44619;51.022;6.818;2023-05-07T05:45:58;15.40;57.50
58849;DHT22;44619;51.022;6.818;2023-05-07T05:48:24;15.40;57.40
58849;DHT22;44619;51.022;6.818;2023-05-07T05:50:50;15.40;57.40
58849;DHT22;44619;51.022;6.818;2023-05-07T05:53:15;15.50;57.30
58849;DHT22;44619;51.022;6.818;2023-05-07T05:55:44;15.60;57.20
58849;DHT22;44619;51.022;6.818;2023-05-07T05:58:09;15.60;57.10
58849;DHT22;44619;51.022;6.818;2023-05-07T06:00:35;15.60;57.20
58849;DHT22;44619;51.022;6.818;2023-05-07T06:03:00;15.60;57.00
58849;DHT22;44619;51.022;6.818;2023-05-07T06:05:29;15.70;57.10
58849;DHT22;44619;51.022;6.818;2023-05-07T06:07:55;15.70;57.20
58849;DHT22;44619;51.022;6.818;2023-05-07T06:10:20;15.70;57.10
58849;DHT22;44619;51.022;6.818;2023-05-07T06:12:46;15.80;57.20
58849;DHT22;44619;51.022;6.818;2023-05-07T06:15:11;15.80;57.20
58849;DHT22;44619;51.022;6.818;2023-05-07T06:17:37;15.80;57.30
58849;DHT22;44619;51.022;6.818;2023-05-07T06:20:02;15.90;57.20
58849;DHT22;44619;51.022;6.818;2023-05-07T06:22:28;15.90;57.10
58849;DHT22;44619;51.022;6.818;2023-05-07T06:24:53;16.00;57.80
58849;DHT22;44619;51.022;6.818;2023-05-07T06:27:19;15.90;57.10
58849;DHT22;44619;51.022;6.818;2023-05-07T06:29:48;16.10;57.10
58849;DHT22;44619;51.022;6.818;2023-05-07T06:32:13;16.10;57.00
58849;DHT22;44619;51.022;6.818;2023-05-07T06:34:39;16.10;57.10
58849;DHT22;44619;51.022;6.818;2023-05-07T06:37:05;16.20;57.30
58849;DHT22;44619;51.022;6.818;2023-05-07T06:39:31;16.30;57.20
58849;DHT22;44619;51.022;6.818;2023-05-07T06:41:57;16.30;57.10
58849;DHT22;44619;51.022;6.818;2023-05-07T06:44:23;16.30;57.20
58849;DHT22;44619;51.022;6.818;2023-05-07T06:46:48;16.40;57.20
58849;DHT22;44619;51.022;6.818;2023-05-07T06:49:14;16.40;57.30
58849;DHT22;44619;51.022;6.818;2023-05-07T06:51:40;16.50;57.30
58849;DHT22;44619;51.022;6.818;2023-05-07T06:54:06;16.50;57.30
58849;DHT22;44619;51.022;6.818;2023-05-07T06:56:31;16.60;57.50
58849;DHT22;44619;51.022;6.818;2023-05-07T06:58:59;16.60;57.50
58849;DHT22;44619;51.022;6.818;2023-05-07T07:01:24;16.70;57.50
58849;DHT22;44619;51.022;6.818;2023-05-07T07:03:50;16.70;57.60
58849;DHT22;44619;51.022;6.818;2023-05-07T07:06:16;16.70;57.60
58849;DHT22;44619;51.022;6.818;2023-05-07T07:08:42;16.80;57.70
58849;DHT22;44619;51.022;6.818;2023-05-07T07:11:11;16.90;57.70
58849;DHT22;44619;51.022;6.818;2023-05-07T07:13:36;16.90;57.80
58849;DHT22;44619;51.022;6.818;2023-05-07T07:16:02;17.00;57.70
58849;DHT22;44619;51.022;6.818;2023-05-07T07:18:28;17.00;57.80
58849;DHT22;44619;51.022;6.818;2023-05-07T07:20:53;17.10;57.80
58849;DHT22;44619;51.022;6.818;2023-05-07T07:23:19;17.20;57.90
58849;DHT22;44619;51.022;6.818;2023-05-07T07:25:45;17.20;57.70
58849;DHT22;44619;51.022;6.818;2023-05-07T07:28:10;17.30;57.80
58849;DHT22;44619;51.022;6.818;2023-05-07T07:30:36;17.40;57.80
58849;DHT22;44619;51.022;6.818;2023-05-07T07:33:02;17.40;57.80
58849;DHT22;44619;51.022;6.818;2023-05-07T07:35:28;17.50;57.90
58849;DHT22;44619;51.022;6.818;2023-05-07T07:37:54;17.60;57.80
58849;DHT22;44619;51.022;6.818;2023-05-07T07:40:19;17.70;57.80
58849;DHT22;44619;51.022;6.818;2023-05-07T07:42:45;17.70;57.80
58849;DHT22;44619;51.022;6.818;2023-05-07T07:45:11;17.80;57.80
58849;DHT22;44619;51.022;6.818;2023-05-07T07:47:37;17.80;57.80
58849;DHT22;44619;51.022;6.818;2023-05-07T07:50:02;17.90;57.80
58849;DHT22;44619;51.022;6.818;2023-05-07T07:52:28;18.00;57.80
58849;DHT22;44619;51.022;6.818;2023-05-07T07:54:53;18.00;57.80
58849;DHT22;44619;51.022;6.818;2023-05-07T07:57:19;18.20;57.80
58849;DHT22;44619;51.022;6.818;2023-05-07T07:59:44;18.20;57.70
58849;DHT22;44619;51.022;6.818;2023-05-07T08:02:10;18.30;57.70
58849;DHT22;44619;51.022;6.818;2023-05-07T08:04:39;18.40;57.60
58849;DHT22;44619;51.022;6.818;2023-05-07T08:07:04;18.40;57.60
58849;DHT22;44619;51.022;6.818;2023-05-07T08:09:31;18.50;57.60
58849;DHT22;44619;51.022;6.818;2023-05-07T08:11:56;18.60;57.70
58849;DHT22;44619;51.022;6.818;2023-05-07T08:14:22;18.60;57.60
58849;DHT22;44619;51.022;6.818;2023-05-07T08:16:47;18.80;57.70
58849;DHT22;44619;51.022;6.818;2023-05-07T08:19:13;18.90;57.60
58849;DHT22;44619;51.022;6.818;2023-05-07T08:21:39;19.00;57.60
58849;DHT22;44619;51.022;6.818;2023-05-07T08:24:06;19.10;57.40
58849;DHT22;44619;51.022;6.818;2023-05-07T08:26:32;19.20;57.30
58849;DHT22;44619;51.022;6.818;2023-05-07T08:29:00;19.30;57.40
58849;DHT22;44619;51.022;6.818;2023-05-07T08:31:26;19.40;57.40
58849;DHT22;44619;51.022;6.818;2023-05-07T08:33:51;19.50;57.30
58849;DHT22;44619;51.022;6.818;2023-05-07T08:36:17;19.50;57.20
58849;DHT22;44619;51.022;6.818;2023-05-07T08:38:44;19.60;57.30
58849;DHT22;44619;51.022;6.818;2023-05-07T08:41:10;19.80;57.10
58849;DHT22;44619;51.022;6.818;2023-05-07T08:43:36;19.90;57.00
58849;DHT22;44619;51.022;6.818;2023-05-07T08:46:03;20.00;57.00
58849;DHT22;44619;51.022;6.818;2023-05-07T08:48:35;20.10;57.00
58849;DHT22;44619;51.022;6.818;2023-05-07T08:51:01;20.10;57.60
58849;DHT22;44619;51.022;6.818;2023-05-07T08:53:26;20.30;57.00
58849;DHT22;44619;51.022;6.818;2023-05-07T08:55:52;20.40;56.90
58849;DHT22;44619;51.022;6.818;2023-05-07T08:58:18;20.40;57.50
58849;DHT22;44619;51.022;6.818;2023-05-07T09:00:43;20.50;56.80
58849;DHT22;44619;51.022;6.818;2023-05-07T09:03:15;20.60;56.70
58849;DHT22;44619;51.022;6.818;2023-05-07T09:05:44;20.70;56.70
58849;DHT22;44619;51.022;6.818;2023-05-07T09:08:10;20.80;56.80
58849;DHT22;44619;51.022;6.818;2023-05-07T09:10:39;20.80;56.60
58849;DHT22;44619;51.022;6.818;2023-05-07T09:13:05;20.90;56.60
58849;DHT22;44619;51.022;6.818;2023-05-07T09:15:30;21.00;56.70
58849;DHT22;44619;51.022;6.818;2023-05-07T09:17:59;21.00;56.70
58849;DHT22;44619;51.022;6.818;2023-05-07T09:20:26;21.10;56.70
58849;DHT22;44619;51.022;6.818;2023-05-07T09:22:52;21.20;56.60
58849;DHT22;44619;51.022;6.818;2023-05-07T09:25:30;21.20;56.60
58849;DHT22;44619;51.022;6.818;2023-05-07T09:27:56;21.30;56.60
58849;DHT22;44619;51.022;6.818;2023-05-07T09:30:21;21.30;56.70
58849;DHT22;44619;51.022;6.818;2023-05-07T09:32:47;21.30;56.70
58849;DHT22;44619;51.022;6.818;2023-05-07T09:35:15;21.40;56.80
58849;DHT22;44619;51.022;6.818;2023-05-07T09:37:42;21.40;56.90
58849;DHT22;44619;51.022;6.818;2023-05-07T09:40:19;21.40;56.90
58849;DHT22;44619;51.022;6.818;2023-05-07T09:42:45;21.50;56.90
58849;DHT22;44619;51.022;6.818;2023-05-07T09:45:12;21.50;57.00
58849;DHT22;44619;51.022;6.818;2023-05-07T09:47:38;21.60;56.90
58849;DHT22;44619;51.022;6.818;2023-05-07T09:50:06;21.70;56.70
58849;DHT22;44619;51.022;6.818;2023-05-07T09:52:33;21.70;56.70
58849;DHT22;44619;51.022;6.818;2023-05-07T09:55:00;21.70;56.70
58849;DHT22;44619;51.022;6.818;2023-05-07T09:57:27;21.70;56.60
58849;DHT22;44619;51.022;6.818;2023-05-07T09:59:52;21.80;56.60
58849;DHT22;44619;51.022;6.818;2023-05-07T10:02:18;21.80;56.60
58849;DHT22;44619;51.022;6.818;2023-05-07T10:04:44;21.80;56.50
58849;DHT22;44619;51.022;6.818;2023-05-07T10:07:10;21.80;56.60
58849;DHT22;44619;51.022;6.818;2023-05-07T10:09:36;21.80;56.50
58849;DHT22;44619;51.022;6.818;2023-05-07T10:12:04;21.80;56.60
58849;DHT22;44619;51.022;6.818;2023-05-07T10:14:30;21.80;56.70
58849;DHT22;44619;51.022;6.818;2023-05-07T10:16:55;21.80;56.60
58849;DHT22;44619;51.022;6.818;2023-05-07T10:19:22;21.80;56.60
58849;DHT22;44619;51.022;6.818;2023-05-07T10:21:49;21.90;56.60
58849;DHT22;44619;51.022;6.818;2023-05-07T10:24:19;21.90;56.50
58849;DHT22;44619;51.022;6.818;2023-05-07T10:26:47;22.00;56.60
58849;DHT22;44619;51.022;6.818;2023-05-07T10:31:54;22.10;56.50
58849;DHT22;44619;51.022;6.818;2023-05-07T10:34:21;22.10;56.50
58849;DHT22;44619;51.022;6.818;2023-05-07T10:36:48;22.20;56.40
58849;DHT22;44619;51.022;6.818;2023-05-07T10:39:19;22.30;56.40
58849;DHT22;44619;51.022;6.818;2023-05-07T10:41:45;22.40;56.30
58849;DHT22;44619;51.022;6.818;2023-05-07T10:44:19;22.50;56.40
58849;DHT22;44619;51.022;6.818;2023-05-07T10:52:19;22.80;56.20
58849;DHT22;44619;51.022;6.818;2023-05-07T10:54:45;22.90;56.20
58849;DHT22;44619;51.022;6.818;2023-05-07T10:59:55;23.10;55.70
58849;DHT22;44619;51.022;6.818;2023-05-07T11:02:20;23.10;55.90
58849;DHT22;44619;51.022;6.818;2023-05-07T11:04:50;23.20;56.00
58849;DHT22;44619;51.022;6.818;2023-05-07T11:07:32;23.30;56.20
58849;DHT22;44619;51.022;6.818;2023-05-07T11:09:58;23.40;56.10
58849;DHT22;44619;51.022;6.818;2023-05-07T11:15:10;23.60;56.00
58849;DHT22;44619;51.022;6.818;2023-05-07T11:17:55;23.70;55.90
58849;DHT22;44619;51.022;6.818;2023-05-07T11:20:21;23.70;55.90
58849;DHT22;44619;51.022;6.818;2023-05-07T11:23:06;23.80;55.90
58849;DHT22;44619;51.022;6.818;2023-05-07T11:25:32;23.90;56.00
58849;DHT22;44619;51.022;6.818;2023-05-07T11:28:04;24.00;55.80
58849;DHT22;44619;51.022;6.818;2023-05-07T11:30:30;24.20;55.80
58849;DHT22;44619;51.022;6.818;2023-05-07T11:32:55;24.30;55.50
58849;DHT22;44619;51.022;6.818;2023-05-07T11:35:24;24.40;55.60
58849;DHT22;44619;51.022;6.818;2023-05-07T11:37:50;24.50;55.40
58849;DHT22;44619;51.022;6.818;2023-05-07T11:40:16;24.70;56.10
58849;DHT22;44619;51.022;6.818;2023-05-07T11:42:41;24.70;55.50
58849;DHT22;44619;51.022;6.818;2023-05-07T11:45:08;24.80;55.60
58849;DHT22;44619;51.022;6.818;2023-05-07T11:47:34;24.90;55.70
58849;DHT22;44619;51.022;6.818;2023-05-07T11:50:06;25.10;55.60
58849;DHT22;44619;51.022;6.818;2023-05-07T11:52:32;25.30;55.70
58849;DHT22;44619;51.022;6.818;2023-05-07T11:54:58;25.60;55.60
58849;DHT22;44619;51.022;6.818;2023-05-07T11:57:25;25.80;55.60
58849;DHT22;44619;51.022;6.818;2023-05-07T11:59:57;26.00;55.50
58849;DHT22;44619;51.022;6.818;2023-05-07T12:02:24;26.20;55.20
58849;DHT22;44619;51.022;6.818;2023-05-07T12:04:53;26.40;55.10
58849;DHT22;44619;51.022;6.818;2023-05-07T12:07:18;26.40;55.20
58849;DHT22;44619;51.022;6.818;2023-05-07T12:09:44;26.50;55.10
58849;DHT22;44619;51.022;6.818;2023-05-07T12:12:10;26.50;54.80
58849;DHT22;44619;51.022;6.818;2023-05-07T12:14:39;26.60;54.70
58849;DHT22;44619;51.022;6.818;2023-05-07T12:17:08;26.60;54.70
58849;DHT22;44619;51.022;6.818;2023-05-07T12:19:35;26.70;54.70
58849;DHT22;44619;51.022;6.818;2023-05-07T12:22:01;26.70;54.70
58849;DHT22;44619;51.022;6.818;2023-05-07T12:24:27;26.70;54.70
58849;DHT22;44619;51.022;6.818;2023-05-07T12:26:53;26.80;54.60
58849;DHT22;44619;51.022;6.818;2023-05-07T12:29:22;26.80;54.50
58849;DHT22;44619;51.022;6.818;2023-05-07T12:31:49;26.90;54.60
58849;DHT22;44619;51.022;6.818;2023-05-07T12:34:15;26.90;54.60
58849;DHT22;44619;51.022;6.818;2023-05-07T12:36:40;27.00;54.50
58849;DHT22;44619;51.022;6.818;2023-05-07T12:39:06;27.00;54.50
58849;DHT22;44619;51.022;6.818;2023-05-07T12:44:18;27.10;54.40
58849;DHT22;44619;51.022;6.818;2023-05-07T12:46:44;27.20;54.20
58849;DHT22;44619;51.022;6.818;2023-05-07T12:49:11;27.30;54.20
58849;DHT22;44619;51.022;6.818;2023-05-07T12:51:37;27.30;54.10
58849;DHT22;44619;51.022;6.818;2023-05-07T12:54:03;27.40;54.20
58849;DHT22;44619;51.022;6.818;2023-05-07T12:56:30;27.40;54.00
58849;DHT22;44619;51.022;6.818;2023-05-07T12:58:57;27.50;54.00
58849;DHT22;44619;51.022;6.818;2023-05-07T13:01:28;27.50;53.90
58849;DHT22;44619;51.022;6.818;2023-05-07T13:03:53;27.60;53.60
58849;DHT22;44619;51.022;6.818;2023-05-07T13:06:19;27.60;53.50
58849;DHT22;44619;51.022;6.818;2023-05-07T13:08:45;27.70;53.40
58849;DHT22;44619;51.022;6.818;2023-05-07T13:11:11;27.80;52.60
58849;DHT22;44619;51.022;6.818;2023-05-07T13:13:37;27.80;52.70
58849;DHT22;44619;51.022;6.818;2023-05-07T13:16:04;27.90;52.40
58849;DHT22;44619;51.022;6.818;2023-05-07T13:18:30;27.90;52.30
58849;DHT22;44619;51.022;6.818;2023-05-07T13:20:57;27.90;52.10
58849;DHT22;44619;51.022;6.818;2023-05-07T13:23:22;27.90;52.40
58849;DHT22;44619;51.022;6.818;2023-05-07T13:25:51;27.90;52.50
58849;DHT22;44619;51.022;6.818;2023-05-07T13:28:19;27.90;52.50
58849;DHT22;44619;51.022;6.818;2023-05-07T13:30:45;28.00;52.30
58849;DHT22;44619;51.022;6.818;2023-05-07T13:33:11;28.00;52.00
58849;DHT22;44619;51.022;6.818;2023-05-07T13:35:37;28.00;52.30
58849;DHT22;44619;51.022;6.818;2023-05-07T13:38:03;27.90;52.20
58849;DHT22;44619;51.022;6.818;2023-05-07T13:40:31;27.90;52.00
58849;DHT22;44619;51.022;6.818;2023-05-07T13:42:58;27.90;51.60
58849;DHT22;44619;51.022;6.818;2023-05-07T13:45:24;27.80;51.80
58849;DHT22;44619;51.022;6.818;2023-05-07T13:47:52;27.70;51.90
58849;DHT22;44619;51.022;6.818;2023-05-07T13:50:17;27.60;52.00
58849;DHT22;44619;51.022;6.818;2023-05-07T13:52:44;27.60;51.80
58849;DHT22;44619;51.022;6.818;2023-05-07T13:55:18;27.60;52.00
58849;DHT22;44619;51.022;6.818;2023-05-07T13:57:44;27.60;51.70
58849;DHT22;44619;51.022;6.818;2023-05-07T14:00:10;27.60;51.70
58849;DHT22;44619;51.022;6.818;2023-05-07T14:02:36;27.50;51.60
58849;DHT22;44619;51.022;6.818;2023-05-07T14:05:03;27.50;51.70
58849;DHT22;44619;51.022;6.818;2023-05-07T14:07:30;27.50;51.60
58849;DHT22;44619;51.022;6.818;2023-05-07T14:09:56;27.50;51.50
58849;DHT22;44619;51.022;6.818;2023-05-07T14:12:22;27.50;51.60
58849;DHT22;44619;51.022;6.818;2023-05-07T14:14:48;27.50;51.30
58849;DHT22;44619;51.022;6.818;2023-05-07T14:17:18;27.50;51.30
58849;DHT22;44619;51.022;6.818;2023-05-07T14:19:44;27.50;51.10
58849;DHT22;44619;51.022;6.818;2023-05-07T14:22:09;27.50;51.30
58849;DHT22;44619;51.022;6.818;2023-05-07T14:24:35;27.50;51.30
58849;DHT22;44619;51.022;6.818;2023-05-07T14:27:01;27.40;51.40
58849;DHT22;44619;51.022;6.818;2023-05-07T14:29:27;27.40;51.50
58849;DHT22;44619;51.022;6.818;2023-05-07T14:31:53;27.40;51.60
58849;DHT22;44619;51.022;6.818;2023-05-07T14:34:18;27.40;51.70
58849;DHT22;44619;51.022;6.818;2023-05-07T14:36:44;27.40;51.50
58849;DHT22;44619;51.022;6.818;2023-05-07T14:39:09;27.30;52.10
58849;DHT22;44619;51.022;6.818;2023-05-07T14:41:35;27.30;51.60
58849;DHT22;44619;51.022;6.818;2023-05-07T14:44:00;27.30;51.50
58849;DHT22;44619;51.022;6.818;2023-05-07T14:46:27;27.30;51.60
58849;DHT22;44619;51.022;6.818;2023-05-07T14:48:52;27.20;51.50
58849;DHT22;44619;51.022;6.818;2023-05-07T14:51:18;27.20;51.30
58849;DHT22;44619;51.022;6.818;2023-05-07T14:53:46;27.20;51.20
58849;DHT22;44619;51.022;6.818;2023-05-07T14:56:12;27.10;51.40
58849;DHT22;44619;51.022;6.818;2023-05-07T14:58:37;27.00;51.40
58849;DHT22;44619;51.022;6.818;2023-05-07T15:01:03;26.90;51.60
58849;DHT22;44619;51.022;6.818;2023-05-07T15:03:28;26.50;50.50
